Time;durP1;ratioP1;P1;durP2;ratioP2;P2;SDS_P1;SDS_P2;PMS_P1;PMS_P2;Temp;Humidity;BMP_temperature;BMP_pressure;BME280_temperature;BME280_humidity;BME280_pressure;Samples;Min_cycle;Max_cycle;Signal;HPM_P1;HPM_P2
2022/07/27 03:57:36;;;;;;;8.40;5.90;;;;;;;21.21;61.63;100279.31;5605887;31;79216;-57
2022/07/27 04:00:38;;;;;;;9.00;6.40;;;;;;;21.21;61.63;100279.31;5584100;31;33342;-58
2022/07/27 04:03:41;;;;;;;8.85;6.07;;;;;;;20.69;62.90;100285.84;5584068;31;33813;-58
2022/07/27 04:06:45;;;;;;;10.15;6.45;;;;;;;20.73;62.80;100294.91;5583910;32;33624;-58
2022/07/27 04:09:47;;;;;;;8.68;6.03;;;;;;;20.78;62.51;100280.25;5583934;32;33583;-57
2022/07/27 04:12:51;;;;;;;8.68;6.60;;;;;;;20.91;62.20;100283.66;5583932;31;33373;-58
2022/07/27 04:15:56;;;;;;;12.45;6.97;;;;;;;21.02;61.59;100284.72;5583539;31;34250;-58
2022/07/27 04:18:58;;;;;;;7.67;6.03;;;;;;;21.06;61.26;100283.66;5587355;31;33518;-58
2022/07/27 04:22:01;;;;;;;9.05;6.47;;;;;;;21.11;60.67;100279.88;5603387;31;33674;-58
2022/07/27 04:25:04;;;;;;;10.00;6.25;;;;;;;21.12;60.22;100293.16;5603400;31;34193;-58
2022/07/27 04:28:06;;;;;;;9.10;6.07;;;;;;;21.21;59.95;100290.22;5603513;31;33572;-58
2022/07/27 04:31:08;;;;;;;7.95;6.75;;;;;;;21.26;59.90;100303.59;5603385;31;34179;-58
2022/07/27 04:34:11;;;;;;;9.10;6.78;;;;;;;21.21;60.08;100306.59;5603321;31;34382;-58
2022/07/27 04:37:13;;;;;;;10.30;6.43;;;;;;;21.22;60.34;100299.19;5603068;31;34163;-58
2022/07/27 04:40:16;;;;;;;14.77;7.47;;;;;;;21.25;60.48;100293.03;5602984;31;33715;-58
2022/07/27 04:43:18;;;;;;;13.23;7.00;;;;;;;21.43;59.95;100301.69;5603364;31;34253;-58
2022/07/27 04:46:21;;;;;;;10.00;7.05;;;;;;;21.54;59.68;100298.03;5603352;31;34274;-58
2022/07/27 04:49:24;;;;;;;9.98;6.60;;;;;;;21.57;59.93;100302.78;5603223;31;33647;-58
2022/07/27 04:52:26;;;;;;;9.20;7.10;;;;;;;21.59;60.06;100294.25;5602819;31;34367;-58
2022/07/27 04:55:29;;;;;;;7.50;6.32;;;;;;;21.67;60.08;100292.47;5602645;31;33568;-58
2022/07/27 04:58:32;;;;;;;7.95;5.53;;;;;;;21.78;59.36;100294.25;5602299;31;33727;-58
2022/07/27 05:01:34;;;;;;;13.10;6.72;;;;;;;21.84;59.64;100291.25;5603132;31;33639;-58
2022/07/27 05:04:37;;;;;;;8.85;6.43;;;;;;;21.85;59.72;100299.06;5602816;31;34450;-58
2022/07/27 05:07:39;;;;;;;8.85;6.45;;;;;;;21.94;59.91;100301.59;5594919;31;34038;-58
2022/07/27 05:10:41;;;;;;;10.93;6.53;;;;;;;21.95;59.57;100303.97;5570338;31;32141;-58
2022/07/27 05:13:43;;;;;;;9.52;6.78;;;;;;;22.07;58.92;100302.25;5569870;32;34243;-58
2022/07/27 05:16:45;;;;;;;8.73;6.18;;;;;;;22.05;58.94;100310.78;5569993;32;34040;-58
2022/07/27 05:19:48;;;;;;;12.77;7.10;;;;;;;22.02;59.31;100319.72;5570323;32;33755;-58
2022/07/27 05:22:50;;;;;;;6.97;6.25;;;;;;;22.11;59.58;100314.81;5570004;32;33720;-58
2022/07/27 05:25:52;;;;;;;8.25;6.30;;;;;;;22.30;59.17;100322.22;5569777;32;34347;-58
2022/07/27 05:28:54;;;;;;;11.10;6.53;;;;;;;22.48;59.01;100317.09;5569878;32;34333;-58
2022/07/27 05:31:56;;;;;;;15.93;6.47;;;;;;;22.69;58.13;100322.19;5569939;32;33755;-58
2022/07/27 05:34:59;;;;;;;29.33;8.23;;;;;;;22.64;57.77;100325.19;5569843;32;33716;-58
2022/07/27 05:38:02;;;;;;;13.02;6.22;;;;;;;22.66;57.73;100326.41;5569645;32;33336;-58
2022/07/27 05:41:08;;;;;;;17.25;6.93;;;;;;;22.93;57.01;100330.03;5569887;32;33847;-58
2022/07/27 05:44:10;;;;;;;12.90;7.12;;;;;;;23.16;55.91;100332.75;5569870;32;33638;-58
2022/07/27 05:47:14;;;;;;;11.30;6.75;;;;;;;23.39;55.46;100327.25;5569426;32;34457;-58
2022/07/27 05:50:16;;;;;;;9.50;6.50;;;;;;;23.43;53.76;100330.81;5569282;32;33699;-58
2022/07/27 05:53:18;;;;;;;9.88;6.68;;;;;;;23.59;53.43;100340.81;5569640;32;33387;-58
2022/07/27 05:56:20;;;;;;;9.77;6.43;;;;;;;23.78;52.16;100326.28;5569543;32;33552;-58
2022/07/27 05:59:23;;;;;;;9.90;6.03;;;;;;;23.79;51.20;100333.31;5569857;32;33641;-58
2022/07/27 06:02:27;;;;;;;68.90;9.48;;;;;;;23.97;50.23;100342.53;5568521;32;33562;-58
2022/07/27 06:05:29;;;;;;;13.27;6.15;;;;;;;24.05;50.51;100340.69;5568903;32;33504;-58
2022/07/27 06:08:32;;;;;;;22.67;5.25;;;;;;;24.27;50.56;100344.44;5567985;32;34374;-58
2022/07/27 06:11:35;;;;;;;24.12;5.28;;;;;;;24.45;47.20;100341.97;5569252;32;33883;-58
2022/07/27 06:14:38;;;;;;;7.72;3.95;;;;;;;24.54;44.97;100348.72;5565479;31;34248;-58
2022/07/27 06:17:41;;;;;;;6.95;3.78;;;;;;;24.63;43.31;100350.34;5560273;31;33826;-58
2022/07/27 06:20:45;;;;;;;11.82;4.43;;;;;;;24.68;42.75;100355.50;5560549;31;33610;-58
2022/07/27 06:23:48;;;;;;;7.30;4.07;;;;;;;24.75;43.13;100359.09;5561870;31;33040;-58
2022/07/27 06:26:51;;;;;;;9.45;4.20;;;;;;;24.70;43.08;100362.19;5563735;31;33679;-58
2022/07/27 06:29:53;;;;;;;49.85;7.10;;;;;;;24.78;42.86;100366.56;5565190;31;33636;-58
2022/07/27 06:32:56;;;;;;;6.40;3.70;;;;;;;24.95;42.82;100361.63;5569179;32;33659;-58
2022/07/27 06:36:01;;;;;;;9.35;4.35;;;;;;;24.97;41.79;100362.06;5569513;32;33684;-58
2022/07/27 06:39:03;;;;;;;7.47;3.40;;;;;;;25.02;41.51;100357.00;5569340;32;33758;-58
2022/07/27 06:42:05;;;;;;;8.35;3.67;;;;;;;25.08;41.28;100357.44;5568080;32;33795;-58
2022/07/27 06:45:08;;;;;;;8.57;3.90;;;;;;;25.03;44.93;100361.34;5568315;32;34183;-58
2022/07/27 06:48:11;;;;;;;9.20;3.62;;;;;;;25.17;41.72;100360.69;5568669;32;33683;-58
2022/07/27 06:51:13;;;;;;;8.18;3.53;;;;;;;25.23;41.47;100350.94;5577139;31;34277;-58
2022/07/27 06:54:16;;;;;;;14.13;4.22;;;;;;;25.24;41.09;100349.00;5568966;32;33699;-58
2022/07/27 06:57:18;;;;;;;6.93;3.80;;;;;;;25.32;42.21;100334.12;5568712;32;34309;-58
2022/07/27 07:00:21;;;;;;;7.35;3.60;;;;;;;25.47;44.67;100346.78;5568628;32;34288;-58
2022/07/27 07:03:23;;;;;;;8.85;4.20;;;;;;;25.44;43.12;100342.06;5568941;32;33925;-58
2022/07/27 07:06:25;;;;;;;7.12;3.45;;;;;;;25.46;46.61;100347.16;5568418;32;33559;-58
2022/07/27 07:09:28;;;;;;;7.53;3.70;;;;;;;25.61;40.23;100345.31;5568483;32;34373;-58
2022/07/27 07:12:31;;;;;;;14.48;4.12;;;;;;;25.51;40.37;100344.06;5568809;32;34430;-58
2022/07/27 07:15:37;;;;;;;14.07;3.70;;;;;;;25.65;42.86;100346.13;5568709;32;34369;-58
2022/07/27 07:18:39;;;;;;;15.60;3.83;;;;;;;25.73;40.23;100343.03;5568692;32;33555;-58
2022/07/27 07:21:42;;;;;;;10.95;3.40;;;;;;;25.85;40.92;100346.66;5568759;32;33866;-58
2022/07/27 07:24:44;;;;;;;4.95;3.00;;;;;;;25.86;39.50;100346.28;5568572;32;33791;-58
2022/07/27 07:27:47;;;;;;;10.15;3.35;;;;;;;26.01;39.30;100344.38;5568924;32;33813;-58
2022/07/27 07:30:50;;;;;;;39.80;4.70;;;;;;;26.01;38.77;100338.87;5568451;32;33804;-59
2022/07/27 07:33:52;;;;;;;40.95;5.20;;;;;;;26.12;39.88;100336.16;5568163;32;33701;-58
2022/07/27 07:36:55;;;;;;;9.68;3.80;;;;;;;26.19;39.36;100336.19;5568493;32;33697;-58
2022/07/27 07:39:58;;;;;;;9.60;3.65;;;;;;;26.11;39.81;100324.38;5568656;32;34360;-59
2022/07/27 07:43:20;;;;;;;8.52;3.87;;;;;;;26.11;39.58;100329.09;5568546;32;33841;-58
2022/07/27 07:46:23;;;;;;;11.50;3.50;;;;;;;26.30;42.66;100330.75;5568507;32;33613;-55
2022/07/27 07:49:25;;;;;;;22.67;4.00;;;;;;;26.20;38.24;100322.06;5568305;32;33639;-55
2022/07/27 07:52:41;;;;;;;19.40;4.12;;;;;;;26.21;38.42;100329.13;5568013;32;33691;-55
2022/07/27 07:55:43;;;;;;;13.43;4.85;;;;;;;26.31;40.11;100332.31;5566601;32;33177;-56
2022/07/27 07:58:47;;;;;;;26.87;4.93;;;;;;;26.32;38.92;100329.16;5556478;31;34077;-55
2022/07/27 08:01:50;;;;;;;9.32;3.97;;;;;;;26.43;40.98;100329.22;5559592;31;33804;-55
2022/07/27 08:04:52;;;;;;;130.57;22.58;;;;;;;26.42;37.61;100322.94;5565762;32;34323;-56
2022/07/27 08:07:54;;;;;;;28.95;5.95;;;;;;;26.39;38.65;100325.66;5567958;32;33655;-55
2022/07/27 08:10:58;;;;;;;50.58;11.18;;;;;;;26.43;37.68;100320.97;5567698;32;34398;-55
2022/07/27 08:14:00;;;;;;;24.10;6.03;;;;;;;26.46;39.69;100315.47;5567451;32;33708;-55
2022/07/27 08:17:02;;;;;;;315.45;37.45;;;;;;;26.66;40.33;100315.91;5566817;32;33544;-55
2022/07/27 08:20:06;;;;;;;17.98;5.25;;;;;;;26.73;38.28;100314.38;5567228;32;34154;-55
2022/07/27 08:23:11;;;;;;;19.92;5.05;;;;;;;26.75;36.50;100312.78;5567307;32;33313;-56
2022/07/27 08:26:14;;;;;;;13.82;3.97;;;;;;;26.67;37.86;100312.00;5567022;32;33606;-56
2022/07/27 08:29:16;;;;;;;14.23;4.00;;;;;;;26.62;37.47;100317.88;5564831;32;33282;-56
2022/07/27 08:32:24;;;;;;;13.55;3.37;;;;;;;26.64;36.65;100318.25;5567111;32;33814;-56
2022/07/27 08:35:33;;;;;;;14.35;4.05;;;;;;;26.69;35.97;100317.91;5566704;32;34347;-56
2022/07/27 08:38:35;;;;;;;38.42;7.72;;;;;;;26.82;36.26;100309.25;5566176;32;33604;-56
2022/07/27 08:41:39;;;;;;;25.08;4.35;;;;;;;26.96;39.36;100313.97;5564420;32;33705;-56
2022/07/27 08:44:43;;;;;;;12.25;3.15;;;;;;;26.87;35.58;100308.84;5567838;32;33695;-55
2022/07/27 08:47:46;;;;;;;7.53;4.22;;;;;;;26.92;35.14;100305.69;5569700;32;33835;-55
2022/07/27 08:50:48;;;;;;;24.27;4.70;;;;;;;26.88;34.55;100304.91;5570050;32;33424;-55
2022/07/27 08:53:52;;;;;;;15.68;5.03;;;;;;;26.93;36.39;100308.06;5566559;31;34308;-55
2022/07/27 08:56:55;;;;;;;17.33;5.25;;;;;;;26.94;34.80;100306.09;5569157;32;33516;-56
2022/07/27 08:59:57;;;;;;;7.87;4.12;;;;;;;26.99;35.25;100302.97;5565726;31;34523;-55
2022/07/27 09:03:00;;;;;;;22.75;5.60;;;;;;;27.00;34.04;100299.03;5563463;31;34192;-55
2022/07/27 09:06:03;;;;;;;37.55;6.62;;;;;;;27.06;36.77;100294.72;5556280;31;34322;-55
2022/07/27 09:09:06;;;;;;;21.10;7.53;;;;;;;27.05;33.97;100298.66;5550592;32;34333;-56
2022/07/27 09:12:09;;;;;;;11.80;7.75;;;;;;;27.13;35.40;100297.47;5550661;32;33880;-55
2022/07/27 09:15:13;;;;;;;12.32;8.27;;;;;;;27.21;33.62;100294.72;5553699;31;33740;-56
2022/07/27 09:18:22;;;;;;;12.63;8.40;;;;;;;27.17;33.60;100286.47;5562499;31;34398;-55
2022/07/27 09:21:25;;;;;;;11.10;9.88;;;;;;;27.14;33.48;100290.78;5557264;31;33266;-56
2022/07/27 09:24:28;;;;;;;11.85;9.70;;;;;;;27.15;31.99;100281.37;5561347;31;33788;-55
2022/07/27 09:27:52;;;;;;;11.30;7.95;;;;;;;27.11;32.75;100286.03;5550978;31;33760;-55
2022/07/27 09:31:04;;;;;;;15.38;11.35;;;;;;;27.16;32.80;100287.66;5569453;32;34492;-55
2022/07/27 09:34:06;;;;;;;19.52;11.50;;;;;;;27.35;32.58;100280.91;5556085;31;33714;-56
2022/07/27 09:37:08;;;;;;;14.15;11.23;;;;;;;27.45;31.97;100284.81;5553302;31;33947;-55
2022/07/27 09:40:13;;;;;;;12.05;9.25;;;;;;;27.53;30.94;100281.66;5563928;31;34117;-56
2022/07/27 09:43:17;;;;;;;20.95;10.05;;;;;;;27.55;31.05;100282.06;5553564;31;33346;-56
2022/07/27 09:46:41;;;;;;;9.25;8.27;;;;;;;27.62;31.51;100281.25;5556331;31;33951;-55
2022/07/27 09:49:44;;;;;;;13.25;9.10;;;;;;;27.56;31.16;100278.13;5553186;31;34164;-55
2022/07/27 09:52:46;;;;;;;14.85;8.77;;;;;;;27.51;32.07;100275.75;5554138;31;33422;-55
2022/07/27 09:55:59;;;;;;;11.88;9.93;;;;;;;27.56;33.19;100274.59;5560547;31;34358;-55
2022/07/27 09:59:02;;;;;;;14.55;11.55;;;;;;;27.64;30.74;100274.16;5551876;31;34422;-56
2022/07/27 10:02:06;;;;;;;14.35;12.70;;;;;;;27.67;30.65;100280.06;5553961;31;33677;-55
2022/07/27 10:05:09;;;;;;;11.52;10.20;;;;;;;27.68;28.98;100276.88;5558656;31;34275;-55
2022/07/27 10:08:12;;;;;;;18.10;9.52;;;;;;;27.85;30.53;100280.81;5556966;31;33366;-55
2022/07/27 10:11:16;;;;;;;10.95;9.70;;;;;;;27.85;30.39;100270.56;5555180;31;34364;-55
2022/07/27 10:14:18;;;;;;;12.00;9.48;;;;;;;27.79;30.42;100274.13;5549765;31;34282;-55
2022/07/27 10:17:21;;;;;;;10.73;8.98;;;;;;;27.92;32.94;100274.47;5549346;31;34361;-56
2022/07/27 10:20:23;;;;;;;10.35;9.18;;;;;;;27.88;30.33;100274.47;5549909;32;34361;-55
2022/07/27 10:23:28;;;;;;;10.95;9.40;;;;;;;27.86;30.10;100282.38;5549815;32;33847;-55
2022/07/27 10:26:33;;;;;;;11.12;8.77;;;;;;;27.90;28.45;100271.34;5549497;32;33370;-55
2022/07/27 10:29:37;;;;;;;12.52;8.65;;;;;;;27.89;29.66;100267.81;5548948;32;34503;-55
2022/07/27 10:32:43;;;;;;;12.25;8.10;;;;;;;27.96;27.91;100267.75;5549761;32;33715;-55
2022/07/27 10:35:46;;;;;;;10.73;7.25;;;;;;;27.98;29.15;100270.91;5549993;32;33228;-55
2022/07/27 10:38:56;;;;;;;7.28;6.10;;;;;;;28.14;27.09;100261.34;5549644;32;34329;-56
2022/07/27 10:42:21;;;;;;;7.68;6.60;;;;;;;28.14;26.67;100264.13;5548339;32;33694;-55
2022/07/27 10:45:38;;;;;;;13.62;9.95;;;;;;;28.15;26.77;100262.94;5545656;32;33326;-55
2022/07/27 10:49:16;;;;;;;9.45;8.52;;;;;;;28.18;26.66;100257.41;5549801;32;33454;-55
2022/07/27 10:52:41;;;;;;;8.60;7.75;;;;;;;28.29;30.92;100258.13;5549157;32;34259;-56
2022/07/27 10:55:45;;;;;;;10.52;6.82;;;;;;;28.21;26.57;100253.84;5549293;32;33711;-55
2022/07/27 10:58:49;;;;;;;10.50;7.60;;;;;;;28.25;26.90;100251.84;5549485;32;33284;-55
2022/07/27 11:01:56;;;;;;;7.53;5.80;;;;;;;28.31;27.79;100243.91;5548722;32;33714;-56
2022/07/27 11:05:03;;;;;;;9.43;5.62;;;;;;;28.39;28.17;100245.47;5548894;32;34354;-55
2022/07/27 11:08:06;;;;;;;9.82;6.97;;;;;;;28.38;25.58;100243.09;5549693;32;34332;-56
2022/07/27 11:11:28;;;;;;;8.18;7.00;;;;;;;28.42;26.84;100241.13;5549691;32;33734;-56
2022/07/27 11:14:42;;;;;;;7.40;6.47;;;;;;;28.38;25.57;100234.81;5548851;32;34195;-56
2022/07/27 11:17:48;;;;;;;12.07;6.45;;;;;;;28.46;26.90;100228.09;5549305;32;34047;-55
2022/07/27 11:21:22;;;;;;;8.32;6.78;;;;;;;28.52;26.64;100219.00;5549012;32;34473;-56
2022/07/27 11:24:28;;;;;;;20.60;7.25;;;;;;;28.44;26.79;100217.47;5562892;32;33623;-55
2022/07/27 11:27:31;;;;;;;19.27;8.20;;;;;;;28.44;27.75;100214.69;5568437;32;33884;-55
2022/07/27 11:30:33;;;;;;;18.83;7.85;;;;;;;28.54;26.91;100215.81;5568407;32;33789;-56
2022/07/27 11:33:49;;;;;;;9.38;6.43;;;;;;;28.57;30.44;100207.50;5569101;32;34438;-55
2022/07/27 11:36:51;;;;;;;;;;;;;;;28.62;27.70;100217.34;5569432;32;33315;-56
2022/07/27 11:39:58;;;;;;;6.57;5.87;;;;;;;28.63;27.87;100209.84;5568575;32;34655;-55
2022/07/27 11:43:31;;;;;;;7.80;5.25;;;;;;;28.70;27.13;100207.00;5568759;32;33390;-55
2022/07/27 11:46:43;;;;;;;8.13;6.45;;;;;;;28.85;27.27;100218.72;5568465;32;33761;-55
2022/07/27 11:49:45;;;;;;;10.98;6.10;;;;;;;28.88;26.81;100218.69;5568613;32;33263;-55
2022/07/27 11:52:56;;;;;;;11.00;6.40;;;;;;;28.84;27.52;100206.91;5568794;32;33828;-55
2022/07/27 11:56:03;;;;;;;12.85;6.93;;;;;;;28.81;28.04;100210.47;5568541;32;33645;-55
2022/07/27 11:59:12;;;;;;;14.35;7.25;;;;;;;28.96;28.20;100208.34;5568363;32;34583;-56
2022/07/27 12:02:18;;;;;;;9.77;6.03;;;;;;;29.08;28.12;100215.34;5568010;32;33467;-55
2022/07/27 12:05:20;;;;;;;7.18;5.78;;;;;;;29.09;28.07;100214.16;5568001;32;33733;-55
2022/07/27 12:08:23;;;;;;;6.95;5.93;;;;;;;28.94;27.28;100199.69;5567960;32;33701;-56
2022/07/27 12:11:27;;;;;;;298.52;18.23;;;;;;;28.95;27.70;100206.78;5567870;32;33745;-56
2022/07/27 12:14:39;;;;;;;13.13;7.12;;;;;;;28.75;28.33;100201.84;5548340;32;33430;-56
2022/07/27 12:17:42;;;;;;;11.30;6.25;;;;;;;28.70;27.46;100187.69;5549924;32;33937;-55
2022/07/27 12:20:47;;;;;;;9.63;6.18;;;;;;;28.75;27.92;100192.78;5551261;32;33830;-55
2022/07/27 12:23:51;;;;;;;8.63;5.95;;;;;;;28.76;28.14;100188.84;5551104;32;33623;-55
2022/07/27 12:27:01;;;;;;;9.95;5.75;;;;;;;28.73;27.31;100190.44;5550872;32;33362;-55
2022/07/27 12:30:14;;;;;;;10.48;5.50;;;;;;;28.68;26.65;100179.06;5551141;32;34456;-55
2022/07/27 12:33:28;;;;;;;11.52;5.20;;;;;;;28.64;26.88;100183.81;5550897;32;34342;-55
2022/07/27 12:36:30;;;;;;;9.00;5.20;;;;;;;28.69;27.78;100184.16;5550891;32;33700;-56
2022/07/27 12:39:32;;;;;;;8.10;5.72;;;;;;;28.76;27.50;100175.81;5550876;32;34119;-56
2022/07/27 12:42:35;;;;;;;8.07;5.95;;;;;;;28.87;27.40;100175.69;5551074;32;33139;-56
2022/07/27 12:45:37;;;;;;;9.13;5.85;;;;;;;28.89;27.33;100173.31;5567779;32;33799;-55
2022/07/27 12:48:41;;;;;;;6.93;5.22;;;;;;;28.89;27.75;100167.81;5570413;32;33747;-56
2022/07/27 12:51:44;;;;;;;9.82;5.78;;;;;;;28.97;27.01;100163.78;5570459;32;33709;-55
2022/07/27 12:54:46;;;;;;;7.80;5.47;;;;;;;29.08;27.79;100166.47;5569925;32;33724;-56
2022/07/27 12:57:50;;;;;;;16.08;6.30;;;;;;;29.20;27.50;100165.13;5569861;32;33764;-56
2022/07/27 13:00:57;;;;;;;8.32;5.37;;;;;;;29.30;29.35;100163.44;5585284;31;33548;-56
2022/07/27 13:04:00;;;;;;;7.32;5.05;;;;;;;29.36;26.75;100162.56;5589989;31;33483;-56
2022/07/27 13:07:02;;;;;;;7.53;5.20;;;;;;;29.30;26.50;100157.91;5589754;31;33246;-56
2022/07/27 13:10:07;;;;;;;6.75;5.20;;;;;;;29.31;27.15;100160.28;5590062;31;33708;-56
2022/07/27 13:13:10;;;;;;;14.05;6.47;;;;;;;29.33;26.48;100151.56;5586457;31;33775;-56
2022/07/27 13:16:12;;;;;;;7.50;5.10;;;;;;;29.31;29.26;100148.47;5569620;32;34308;-56
2022/07/27 13:19:15;;;;;;;10.90;5.15;;;;;;;29.24;26.47;100139.06;5569778;32;34365;-56
2022/07/27 13:22:18;;;;;;;8.70;5.35;;;;;;;29.34;26.96;100139.31;5570136;32;33671;-55
2022/07/27 13:25:20;;;;;;;9.13;4.55;;;;;;;29.33;26.53;100133.03;5568852;32;34402;-56
2022/07/27 13:28:23;;;;;;;7.45;4.85;;;;;;;29.35;26.89;100135.37;5568769;32;33646;-56
2022/07/27 13:31:25;;;;;;;8.75;5.20;;;;;;;29.48;26.83;100139.16;5569736;32;33723;-55
2022/07/27 13:34:27;;;;;;;7.25;4.97;;;;;;;29.47;26.78;100132.03;5569092;32;34240;-56
2022/07/27 13:37:30;;;;;;;9.02;5.40;;;;;;;29.59;26.86;100130.72;5569423;32;33751;-56
2022/07/27 13:40:32;;;;;;;8.05;4.78;;;;;;;29.68;27.02;100134.56;5569894;32;34148;-56
2022/07/27 13:43:34;;;;;;;7.62;5.03;;;;;;;29.70;26.06;100114.78;5569851;32;33309;-56
2022/07/27 13:46:37;;;;;;;10.27;4.90;;;;;;;29.74;25.89;100115.53;5569555;32;34320;-56
2022/07/27 13:49:40;;;;;;;8.25;4.87;;;;;;;29.73;26.42;100113.94;5569860;32;33496;-56
2022/07/27 13:52:42;;;;;;;7.62;4.57;;;;;;;29.76;26.19;100115.09;5569456;32;34309;-55
2022/07/27 13:55:45;;;;;;;11.02;4.65;;;;;;;29.71;25.72;100110.84;5569612;32;33655;-56
2022/07/27 13:58:47;;;;;;;7.97;4.82;;;;;;;29.76;27.17;100106.81;5569540;32;33710;-56
2022/07/27 14:01:51;;;;;;;14.68;5.00;;;;;;;29.79;25.58;100100.47;5569966;32;33671;-56
2022/07/27 14:04:57;;;;;;;8.00;5.47;;;;;;;29.82;25.79;100097.63;5569812;32;33720;-56
2022/07/27 14:07:59;;;;;;;6.12;4.40;;;;;;;29.89;26.15;100096.75;5569858;32;33695;-55
2022/07/27 14:11:02;;;;;;;8.60;4.43;;;;;;;29.99;25.50;100100.53;5569326;32;34294;-56
2022/07/27 14:14:04;;;;;;;6.57;4.80;;;;;;;29.87;25.55;100097.19;5569129;32;33806;-55
2022/07/27 14:17:06;;;;;;;6.05;4.55;;;;;;;29.81;25.94;100098.06;5569534;32;34375;-56
2022/07/27 14:20:09;;;;;;;10.00;4.75;;;;;;;29.79;25.46;100079.12;5568425;32;33670;-56
2022/07/27 14:23:12;;;;;;;8.50;4.82;;;;;;;29.64;25.98;100089.62;5568562;32;33812;-56
2022/07/27 14:26:14;;;;;;;23.05;6.00;;;;;;;29.68;26.08;100086.81;5569609;32;34442;-56
2022/07/27 14:29:16;;;;;;;13.30;5.40;;;;;;;29.50;27.86;100085.06;5569423;32;33631;-56
2022/07/27 14:32:18;;;;;;;10.82;4.95;;;;;;;29.37;27.42;100081.31;5569595;32;33672;-56
2022/07/27 14:35:21;;;;;;;7.30;4.72;;;;;;;29.29;26.97;100079.84;5569124;32;33790;-55
2022/07/27 14:38:24;;;;;;;8.23;4.50;;;;;;;29.25;26.37;100070.81;5568644;32;33722;-56
2022/07/27 14:41:34;;;;;;;6.45;4.62;;;;;;;29.40;27.14;100068.63;5567532;32;33650;-56
